createdAt,value
2023-07-03T00:00:37.354Z,47.64
2023-07-03T00:01:37.989Z,47.63
2023-07-03T00:02:38.466Z,47.62
2023-07-03T00:03:38.500Z,47.65
2023-07-03T00:04:38.650Z,47.61
2023-07-03T00:05:38.609Z,47.63
2023-07-03T00:06:38.672Z,47.62
2023-07-03T00:07:38.701Z,47.66
2023-07-03T00:08:37.788Z,47.64
2023-07-03T00:09:37.801Z,47.66
2023-07-03T00:10:38.867Z,47.67
2023-07-03T00:11:38.922Z,47.67
2023-07-03T00:12:38.970Z,47.65
2023-07-03T00:13:39.029Z,47.66
2023-07-03T00:14:39.070Z,47.64
2023-07-03T00:15:38.148Z,47.62
2023-07-03T00:16:39.166Z,47.66
2023-07-03T00:17:39.279Z,47.66
2023-07-03T00:18:38.283Z,47.65
2023-07-03T00:19:38.346Z,47.63
2023-07-03T00:20:39.406Z,47.64
2023-07-03T00:21:39.429Z,47.66
2023-07-03T00:22:38.475Z,47.67
2023-07-03T00:23:39.533Z,47.62
2023-07-03T00:24:39.568Z,47.63
2023-07-03T00:25:40.450Z,47.66
2023-07-03T00:26:39.683Z,47.66
2023-07-03T00:27:38.724Z,47.64
2023-07-03T00:28:39.781Z,47.63
2023-07-03T00:29:38.851Z,47.64
2023-07-03T00:30:39.882Z,47.63
2023-07-03T00:31:39.965Z,47.66
2023-07-03T00:32:39.033Z,47.64
2023-07-03T00:33:40.041Z,47.63
2023-07-03T00:34:39.115Z,47.66
2023-07-03T00:35:40.213Z,47.64
2023-07-03T00:36:40.237Z,47.68
2023-07-03T00:37:40.256Z,47.65
2023-07-03T00:38:40.315Z,47.67
2023-07-03T00:39:40.361Z,47.65
2023-07-03T00:40:40.408Z,47.67
2023-07-03T00:41:39.453Z,47.66
2023-07-03T00:42:40.515Z,47.69
2023-07-03T00:43:39.661Z,47.63
2023-07-03T00:44:39.653Z,47.67
2023-07-03T00:45:40.684Z,47.67
2023-07-03T00:46:40.870Z,47.63
2023-07-03T00:47:40.812Z,47.65
2023-07-03T00:48:39.836Z,47.69
2023-07-03T00:49:39.905Z,47.69
2023-07-03T00:50:39.957Z,47.66
2023-07-03T00:51:41.019Z,47.67
2023-07-03T00:52:41.082Z,47.67
2023-07-03T00:53:40.125Z,47.64
2023-07-03T00:54:40.192Z,47.66
2023-07-03T00:55:40.237Z,47.68
2023-07-03T00:56:41.297Z,47.68
2023-07-03T00:57:41.383Z,47.68
2023-07-03T00:58:40.421Z,47.65
2023-07-03T00:59:40.468Z,47.67
2023-07-03T01:00:40.557Z,47.65
2023-07-03T01:01:41.709Z,47.68
2023-07-03T01:02:41.743Z,47.63
2023-07-03T01:03:40.703Z,47.66
2023-07-03T01:04:41.882Z,47.71
2023-07-03T01:05:41.841Z,47.63
2023-07-03T01:06:41.868Z,47.67
2023-07-03T01:07:41.949Z,47.65
2023-07-03T01:08:42.021Z,47.66
2023-07-03T01:09:41.067Z,47.67
2023-07-03T01:10:42.090Z,47.68
2023-07-03T01:11:42.156Z,47.68
2023-07-03T01:12:41.221Z,47.68
2023-07-03T01:13:42.276Z,47.71
2023-07-03T01:14:42.316Z,47.64
2023-07-03T01:15:42.382Z,47.66
2023-07-03T01:16:42.518Z,47.66
2023-07-03T01:17:42.507Z,47.67
2023-07-03T01:18:41.549Z,47.68
2023-07-03T01:19:42.606Z,47.70
2023-07-03T01:20:42.668Z,47.70
2023-07-03T01:21:43.890Z,47.68
2023-07-03T01:22:42.778Z,47.70
2023-07-03T01:23:42.824Z,47.65
2023-07-03T01:24:42.937Z,47.68
2023-07-03T01:25:42.929Z,47.69
2023-07-03T01:26:43.010Z,47.66
2023-07-03T01:27:43.054Z,47.67
2023-07-03T01:28:43.134Z,47.66
2023-07-03T01:29:43.164Z,47.68
2023-07-03T01:30:42.225Z,47.70
2023-07-03T01:31:42.300Z,47.65
2023-07-03T01:32:42.367Z,47.72
2023-07-03T01:33:43.384Z,47.68
2023-07-03T01:34:42.449Z,47.66
2023-07-03T01:35:43.493Z,47.69
2023-07-03T01:36:43.596Z,47.71
2023-07-03T01:37:43.618Z,47.66
2023-07-03T01:38:43.695Z,47.72
2023-07-03T01:39:42.723Z,47.70
2023-07-03T01:40:43.801Z,47.69
2023-07-03T01:41:43.841Z,47.71
2023-07-03T01:42:43.896Z,47.70
2023-07-03T01:43:43.948Z,47.64
2023-07-03T01:44:43.999Z,47.70
2023-07-03T01:45:44.100Z,47.68
2023-07-03T01:46:43.100Z,47.68
2023-07-03T01:47:44.192Z,47.72
2023-07-03T01:48:43.222Z,47.69
2023-07-03T01:49:44.290Z,47.71
2023-07-03T01:50:43.334Z,47.71
2023-07-03T01:51:44.365Z,47.67
2023-07-03T01:52:44.428Z,47.63
2023-07-03T01:53:43.500Z,47.70
2023-07-03T01:54:44.527Z,47.73
2023-07-03T01:55:44.577Z,47.67
2023-07-03T01:56:43.666Z,47.71
2023-07-03T01:57:43.733Z,47.68
2023-07-03T01:58:43.751Z,47.74
2023-07-03T01:59:44.795Z,47.78
2023-07-03T02:00:44.867Z,47.70
2023-07-03T02:01:44.965Z,47.71
2023-07-03T02:02:44.052Z,47.72
2023-07-03T02:03:44.054Z,47.73
2023-07-03T02:04:45.112Z,47.74
2023-07-03T02:05:44.119Z,47.71
2023-07-03T02:06:44.180Z,47.73
2023-07-03T02:07:45.233Z,47.72
2023-07-03T02:08:44.297Z,47.75
2023-07-03T02:09:45.352Z,47.71
2023-07-03T02:10:45.410Z,47.75
2023-07-03T02:11:44.444Z,47.70
2023-07-03T02:12:44.529Z,47.67
2023-07-03T02:13:45.571Z,47.74
2023-07-03T02:14:45.630Z,47.69
2023-07-03T02:15:45.694Z,47.72
2023-07-03T02:16:44.823Z,47.74
2023-07-03T02:17:45.845Z,47.72
2023-07-03T02:18:45.838Z,47.77
2023-07-03T02:19:44.900Z,47.77
2023-07-03T02:20:44.959Z,47.76
2023-07-03T02:21:46.020Z,47.75
2023-07-03T02:22:46.070Z,47.77
2023-07-03T02:23:45.142Z,47.77
2023-07-03T02:24:45.176Z,47.75
2023-07-03T02:25:46.235Z,47.75
2023-07-03T02:26:45.280Z,47.74
2023-07-03T02:27:46.433Z,47.74
2023-07-03T02:28:45.404Z,47.71
2023-07-03T02:29:45.472Z,47.72
2023-07-03T02:30:45.548Z,47.76
2023-07-03T02:31:46.578Z,47.74
2023-07-03T02:32:46.709Z,47.73
2023-07-03T02:33:46.741Z,47.73
2023-07-03T02:34:46.761Z,47.75
2023-07-03T02:35:46.853Z,47.72
2023-07-03T02:36:45.891Z,47.70
2023-07-03T02:37:46.953Z,47.75
2023-07-03T02:38:47.004Z,47.74
2023-07-03T02:39:46.103Z,47.73
2023-07-03T02:40:47.122Z,47.78
2023-07-03T02:41:46.178Z,47.73
2023-07-03T02:42:46.249Z,47.77
2023-07-03T02:43:46.332Z,47.73
2023-07-03T02:44:47.395Z,47.75
2023-07-03T02:45:47.543Z,47.74
2023-07-03T02:46:46.542Z,47.73
2023-07-03T02:47:46.581Z,47.76
2023-07-03T02:48:46.614Z,47.72
2023-07-03T02:49:47.755Z,47.72
2023-07-03T02:50:47.755Z,47.74
2023-07-03T02:51:47.793Z,47.75
2023-07-03T02:52:46.864Z,47.79
2023-07-03T02:53:47.911Z,47.80
2023-07-03T02:54:47.963Z,47.75
2023-07-03T02:55:48.210Z,47.76
2023-07-03T02:56:47.176Z,47.75
2023-07-03T02:57:47.155Z,47.76
2023-07-03T02:58:47.217Z,47.75
2023-07-03T02:59:48.300Z,47.79
2023-07-03T03:00:48.414Z,47.76
2023-07-03T03:01:47.426Z,47.75
2023-07-03T03:02:47.543Z,47.74
2023-07-03T03:03:47.584Z,47.76
2023-07-03T03:04:48.627Z,47.75
2023-07-03T03:05:47.737Z,47.72
2023-07-03T03:06:48.708Z,47.76
2023-07-03T03:07:48.803Z,47.77
2023-07-03T03:08:48.844Z,47.76
2023-07-03T03:09:48.943Z,47.77
2023-07-03T03:10:48.981Z,47.79
2023-07-03T03:11:49.028Z,47.77
2023-07-03T03:12:48.112Z,47.75
2023-07-03T03:13:48.155Z,47.75
2023-07-03T03:14:49.239Z,47.79
2023-07-03T03:15:49.618Z,47.78
2023-07-03T03:16:49.497Z,47.80
2023-07-03T03:17:48.400Z,47.75
2023-07-03T03:18:48.574Z,47.76
2023-07-03T03:19:49.514Z,47.77
2023-07-03T03:20:48.634Z,47.77
2023-07-03T03:21:48.618Z,47.79
2023-07-03T03:22:49.686Z,47.75
2023-07-03T03:23:48.734Z,47.75
2023-07-03T03:24:49.814Z,47.75
2023-07-03T03:25:50.212Z,47.77
2023-07-03T03:26:48.941Z,47.75
2023-07-03T03:27:48.984Z,47.73
2023-07-03T03:28:50.078Z,47.74
2023-07-03T03:29:50.115Z,47.77
2023-07-03T03:30:49.200Z,47.73
2023-07-03T03:31:50.241Z,47.77
2023-07-03T03:32:50.308Z,47.77
2023-07-03T03:33:50.343Z,47.75
2023-07-03T03:34:49.413Z,47.74
2023-07-03T03:35:49.730Z,47.77
2023-07-03T03:36:49.523Z,47.76
2023-07-03T03:37:50.578Z,47.79
2023-07-03T03:38:49.664Z,47.75
2023-07-03T03:39:50.720Z,47.81
2023-07-03T03:40:49.788Z,47.75
2023-07-03T03:41:49.853Z,47.78
2023-07-03T03:42:49.903Z,47.76
2023-07-03T03:43:50.968Z,47.76
2023-07-03T03:44:50.021Z,47.76
2023-07-03T03:45:50.367Z,47.76
2023-07-03T03:46:51.155Z,47.78
2023-07-03T03:47:51.318Z,47.76
2023-07-03T03:48:51.390Z,47.77
2023-07-03T03:49:50.343Z,47.78
2023-07-03T03:50:51.665Z,47.77
2023-07-03T03:51:50.472Z,47.79
2023-07-03T03:52:51.527Z,47.76
2023-07-03T03:53:51.599Z,47.76
2023-07-03T03:54:51.651Z,47.79
2023-07-03T03:55:51.141Z,47.81
2023-07-03T03:56:51.771Z,47.79
2023-07-03T03:57:51.823Z,47.78
2023-07-03T03:58:51.910Z,47.79
2023-07-03T03:59:52.132Z,47.76
2023-07-03T04:00:51.024Z,47.75
2023-07-03T04:01:51.157Z,47.79
2023-07-03T04:02:52.214Z,47.79
2023-07-03T04:03:52.342Z,47.82
2023-07-03T04:04:52.319Z,47.80
2023-07-03T04:05:52.636Z,47.82
2023-07-03T04:06:51.376Z,47.78
2023-07-03T04:07:52.443Z,47.80
2023-07-03T04:08:51.494Z,47.80
2023-07-03T04:09:52.557Z,47.78
2023-07-03T04:10:51.621Z,47.81
2023-07-03T04:11:51.688Z,47.78
2023-07-03T04:12:52.746Z,47.78
2023-07-03T04:13:52.906Z,47.81
2023-07-03T04:14:52.899Z,47.80
2023-07-03T04:15:52.604Z,47.80
2023-07-03T04:16:53.182Z,47.76
2023-07-03T04:17:52.104Z,47.78
2023-07-03T04:18:52.114Z,47.78
2023-07-03T04:19:52.199Z,47.77
2023-07-03T04:20:53.225Z,47.78
2023-07-03T04:21:53.304Z,47.80
2023-07-03T04:22:53.335Z,47.77
2023-07-03T04:23:52.412Z,47.81
2023-07-03T04:24:52.461Z,47.77
2023-07-03T04:25:52.797Z,47.77
2023-07-03T04:26:53.597Z,47.77
2023-07-03T04:27:52.631Z,47.78
2023-07-03T04:28:53.674Z,47.80
2023-07-03T04:29:53.740Z,47.72
2023-07-03T04:30:53.785Z,47.76
2023-07-03T04:31:52.914Z,47.81
2023-07-03T04:32:53.931Z,47.76
2023-07-03T04:33:52.954Z,47.82
2023-07-03T04:34:54.034Z,47.84
2023-07-03T04:35:53.319Z,47.80
2023-07-03T04:36:53.123Z,47.80
2023-07-03T04:37:53.177Z,47.80
2023-07-03T04:38:53.251Z,47.80
2023-07-03T04:39:53.313Z,47.81
2023-07-03T04:40:53.357Z,47.81
2023-07-03T04:41:54.411Z,47.74
2023-07-03T04:42:54.505Z,47.84
2023-07-03T04:43:54.535Z,47.76
2023-07-03T04:44:54.599Z,47.79
2023-07-03T04:45:54.060Z,47.81
2023-07-03T04:46:54.698Z,47.79
2023-07-03T04:47:54.908Z,47.82
2023-07-03T04:48:54.812Z,47.82
2023-07-03T04:49:53.892Z,47.85
2023-07-03T04:50:53.947Z,47.83
2023-07-03T04:51:53.972Z,47.82
2023-07-03T04:52:57.401Z,47.81
2023-07-03T04:53:55.015Z,47.81
2023-07-03T04:54:54.029Z,47.82
2023-07-03T04:55:54.559Z,47.82
2023-07-03T04:56:55.013Z,47.79
2023-07-03T04:57:54.984Z,47.81
2023-07-03T04:58:54.982Z,47.82
2023-07-03T04:59:54.978Z,47.77
2023-07-03T05:00:54.982Z,47.79
2023-07-03T05:01:55.042Z,47.81
2023-07-03T05:02:54.063Z,47.80
2023-07-03T05:03:54.136Z,47.79
2023-07-03T05:04:55.205Z,47.81
2023-07-03T05:05:55.177Z,47.78
2023-07-03T05:06:55.272Z,47.78
2023-07-03T05:07:57.874Z,47.78
2023-07-03T05:08:55.264Z,47.81
2023-07-03T05:09:54.257Z,47.79
2023-07-03T05:10:54.242Z,47.81
2023-07-03T05:11:54.257Z,47.80
2023-07-03T05:12:55.246Z,47.79
2023-07-03T05:13:55.251Z,47.81
2023-07-03T05:14:54.230Z,47.81
2023-07-03T05:15:54.454Z,47.78
2023-07-03T05:16:54.204Z,47.80
2023-07-03T05:17:55.234Z,47.77
2023-07-03T05:18:54.203Z,47.78
2023-07-03T05:19:55.170Z,47.79
2023-07-03T05:20:55.169Z,47.77
2023-07-03T05:21:55.166Z,47.80
2023-07-03T05:22:54.173Z,47.81
2023-07-03T05:23:54.245Z,47.82
2023-07-03T05:24:54.285Z,47.81
2023-07-03T05:25:54.523Z,47.79
2023-07-03T05:26:55.418Z,47.79
2023-07-03T05:27:55.470Z,47.83
2023-07-03T05:28:55.521Z,47.80
2023-07-03T05:29:54.591Z,47.86
2023-07-03T05:30:55.690Z,48.01
2023-07-03T05:31:54.731Z,48.08
2023-07-03T05:32:55.775Z,48.51
2023-07-03T05:33:54.803Z,48.61
2023-07-03T05:34:55.834Z,48.69
2023-07-03T05:35:55.987Z,48.82
2023-07-03T05:36:55.881Z,48.82
2023-07-03T05:37:55.942Z,48.69
2023-07-03T05:38:56.011Z,48.65
2023-07-03T05:39:56.037Z,48.56
2023-07-03T05:40:56.076Z,48.44
2023-07-03T05:41:55.134Z,48.35
2023-07-03T05:42:55.187Z,48.38
2023-07-03T05:43:56.242Z,48.32
2023-07-03T05:44:56.337Z,48.25
2023-07-03T05:45:56.389Z,48.37
2023-07-03T05:46:55.473Z,48.25
2023-07-03T05:47:56.489Z,48.53
2023-07-03T05:48:56.511Z,48.45
2023-07-03T05:49:56.558Z,48.63
2023-07-03T05:50:56.633Z,48.53
2023-07-03T05:51:56.668Z,48.50
2023-07-03T05:52:56.740Z,48.60
2023-07-03T05:53:55.808Z,48.74
2023-07-03T05:54:56.922Z,48.85
2023-07-03T05:55:56.942Z,48.82
2023-07-03T05:56:56.982Z,48.88
2023-07-03T05:57:56.034Z,48.85
2023-07-03T05:58:57.080Z,48.89
2023-07-03T05:59:57.150Z,48.90
2023-07-03T06:00:57.178Z,48.93
2023-07-03T06:01:57.209Z,48.99
2023-07-03T06:02:56.293Z,48.95
2023-07-03T06:03:57.292Z,49.06
2023-07-03T06:04:57.429Z,48.90
2023-07-03T06:05:57.307Z,48.88
2023-07-03T06:06:56.350Z,49.20
2023-07-03T06:07:57.401Z,49.25
2023-07-03T06:08:57.383Z,49.37
2023-07-03T06:09:57.404Z,49.48
2023-07-03T06:10:56.439Z,49.53
2023-07-03T06:11:57.424Z,49.66
2023-07-03T06:12:56.450Z,49.74
2023-07-03T06:13:56.441Z,49.81
2023-07-03T06:14:56.480Z,49.71
2023-07-03T06:15:57.456Z,49.91
2023-07-03T06:16:56.526Z,50.04
2023-07-03T06:17:57.479Z,49.77
2023-07-03T06:18:56.465Z,50.06
2023-07-03T06:19:56.458Z,50.24
2023-07-03T06:20:56.443Z,50.36
2023-07-03T06:21:57.494Z,50.30
2023-07-03T06:22:57.449Z,50.70
2023-07-03T06:23:57.452Z,50.53
2023-07-03T06:24:57.480Z,50.58
2023-07-03T06:25:57.441Z,50.66
2023-07-03T06:26:57.456Z,50.25
2023-07-03T06:27:57.420Z,50.85
2023-07-03T06:28:57.419Z,50.95
2023-07-03T06:29:56.416Z,51.09
2023-07-03T06:30:57.456Z,51.10
2023-07-03T06:31:56.425Z,50.65
2023-07-03T06:32:57.476Z,50.99
2023-07-03T06:33:56.403Z,50.67
2023-07-03T06:34:56.493Z,50.58
2023-07-03T06:35:57.411Z,51.27
2023-07-03T06:36:56.411Z,50.60
2023-07-03T06:37:56.398Z,50.38
2023-07-03T06:38:57.397Z,51.17
2023-07-03T06:39:57.412Z,51.18
2023-07-03T06:40:57.394Z,51.00
2023-07-03T06:41:57.400Z,51.07
2023-07-03T06:42:56.508Z,51.30
2023-07-03T06:43:57.376Z,51.58
2023-07-03T06:44:57.402Z,51.48
2023-07-03T06:45:58.333Z,51.55
2023-07-03T06:46:57.412Z,50.97
2023-07-03T06:47:57.453Z,51.26
2023-07-03T06:48:57.402Z,51.38
2023-07-03T06:49:56.411Z,51.84
2023-07-03T06:50:57.396Z,51.69
2023-07-03T06:51:57.398Z,51.52
2023-07-03T06:52:57.398Z,51.79
2023-07-03T06:53:57.400Z,51.72
2023-07-03T06:54:56.385Z,51.59
2023-07-03T06:55:59.116Z,51.60
2023-07-03T06:56:57.386Z,51.98
2023-07-03T06:57:57.363Z,52.01
2023-07-03T06:58:57.525Z,52.11
2023-07-03T06:59:57.377Z,52.07
2023-07-03T07:00:56.348Z,52.17
2023-07-03T07:01:56.399Z,52.19
2023-07-03T07:02:57.501Z,52.24
2023-07-03T07:03:56.389Z,52.28
2023-07-03T07:04:58.801Z,52.20
2023-07-03T07:05:58.983Z,52.13
2023-07-03T07:06:56.321Z,52.17
2023-07-03T07:07:56.334Z,52.00
2023-07-03T07:08:57.300Z,52.17
2023-07-03T07:09:57.311Z,52.13
2023-07-03T07:10:57.294Z,51.88
2023-07-03T07:11:56.452Z,52.26
2023-07-03T07:12:57.282Z,52.31
2023-07-03T07:13:57.282Z,52.23
2023-07-03T07:14:57.287Z,52.24
2023-07-03T07:15:56.243Z,52.06
2023-07-03T07:16:57.283Z,52.15
2023-07-03T07:17:56.269Z,52.27
2023-07-03T07:18:57.321Z,52.33
2023-07-03T07:19:59.082Z,52.31
2023-07-03T07:20:57.230Z,52.59
2023-07-03T07:21:57.199Z,52.50
2023-07-03T07:22:57.195Z,52.56
2023-07-03T07:23:57.229Z,52.53
2023-07-03T07:24:57.207Z,52.66
2023-07-03T07:25:58.389Z,52.58
2023-07-03T07:26:57.281Z,52.71
2023-07-03T07:27:56.345Z,52.63
2023-07-03T07:28:57.391Z,52.61
2023-07-03T07:29:57.456Z,52.53
2023-07-03T07:30:56.669Z,52.68
2023-07-03T07:31:57.581Z,52.64
2023-07-03T07:32:57.694Z,52.80
2023-07-03T07:33:56.739Z,52.84
2023-07-03T07:34:57.753Z,52.64
2023-07-03T07:35:57.802Z,52.78
2023-07-03T07:36:56.862Z,52.85
2023-07-03T07:37:56.903Z,52.77
2023-07-03T07:38:57.246Z,52.84
2023-07-03T07:39:57.005Z,52.84
2023-07-03T07:40:57.050Z,52.96
2023-07-03T07:41:57.142Z,52.94
2023-07-03T07:42:58.140Z,52.81
2023-07-03T07:43:57.196Z,52.82
2023-07-03T07:44:58.248Z,52.93
2023-07-03T07:45:58.329Z,52.88
2023-07-03T07:46:58.503Z,52.93
2023-07-03T07:47:57.431Z,52.81
2023-07-03T07:48:57.449Z,52.87
2023-07-03T07:49:57.474Z,52.92
2023-07-03T07:50:58.502Z,52.85
2023-07-03T07:51:58.550Z,52.57
2023-07-03T07:52:57.579Z,52.46
2023-07-03T07:53:58.621Z,52.83
2023-07-03T07:54:58.659Z,52.65
2023-07-03T07:55:58.660Z,52.75
2023-07-03T07:56:57.685Z,52.78
2023-07-03T07:57:58.728Z,52.75
2023-07-03T07:58:58.734Z,52.57
2023-07-03T07:59:57.778Z,52.64
2023-07-03T08:00:59.115Z,52.51
2023-07-03T08:01:58.833Z,52.56
2023-07-03T08:02:58.017Z,52.49
2023-07-03T08:03:58.905Z,52.27
2023-07-03T08:04:59.039Z,52.37
2023-07-03T08:05:58.931Z,52.47
2023-07-03T08:06:58.960Z,52.34
2023-07-03T08:07:58.007Z,52.35
2023-07-03T08:08:58.020Z,52.53
2023-07-03T08:09:59.040Z,52.37
2023-07-03T08:10:59.045Z,52.37
2023-07-03T08:11:58.056Z,52.36
2023-07-03T08:12:59.068Z,52.45
2023-07-03T08:13:59.081Z,52.36
2023-07-03T08:14:59.105Z,52.30
2023-07-03T08:15:59.137Z,52.36
2023-07-03T08:16:58.172Z,52.24
2023-07-03T08:17:58.126Z,52.05
2023-07-03T08:18:58.168Z,52.26
2023-07-03T08:19:58.184Z,52.20
2023-07-03T08:20:58.192Z,52.12
2023-07-03T08:21:58.217Z,51.99
2023-07-03T08:22:58.238Z,51.94
2023-07-03T08:23:59.242Z,51.99
2023-07-03T08:24:59.271Z,51.89
2023-07-03T08:25:59.264Z,51.86
2023-07-03T08:26:58.280Z,51.82
2023-07-03T08:27:58.275Z,52.08
2023-07-03T08:28:59.272Z,52.07
2023-07-03T08:29:58.282Z,51.82
2023-07-03T08:30:58.316Z,51.86
2023-07-03T08:31:59.355Z,51.91
2023-07-03T08:32:59.409Z,51.81
2023-07-03T08:33:58.468Z,51.92
2023-07-03T08:37:58.325Z,51.98
2023-07-03T08:38:59.326Z,51.76
2023-07-03T08:39:59.342Z,51.61
2023-07-03T08:40:59.314Z,51.93
2023-07-03T08:41:58.298Z,51.64
2023-07-03T08:42:59.314Z,51.68
2023-07-03T08:43:59.283Z,51.63
2023-07-03T08:44:59.285Z,51.45
2023-07-03T08:45:58.311Z,51.76
2023-07-03T08:47:10.770Z,51.61
2023-07-03T08:47:59.267Z,51.81
2023-07-03T08:48:58.278Z,51.63
2023-07-03T08:49:58.241Z,51.43
2023-07-03T08:50:59.386Z,51.57
2023-07-03T08:51:58.216Z,51.62
2023-07-03T08:52:59.231Z,51.57
2023-07-03T08:53:58.215Z,51.56
2023-07-03T08:54:59.200Z,51.56
2023-07-03T08:55:59.221Z,51.43
2023-07-03T08:56:59.191Z,51.48
2023-07-03T08:58:00.170Z,51.49
2023-07-03T08:58:59.178Z,51.48
2023-07-03T08:59:59.213Z,51.53
2023-07-03T09:00:59.308Z,51.44
2023-07-03T09:01:59.311Z,51.44
2023-07-03T09:02:58.434Z,51.39
2023-07-03T09:03:58.510Z,51.45
2023-07-03T09:04:59.496Z,51.48
2023-07-03T09:05:59.514Z,51.47
2023-07-03T09:06:59.667Z,51.27
2023-07-03T09:07:58.617Z,51.37
2023-07-03T09:08:58.671Z,51.33
2023-07-03T09:09:58.730Z,51.18
2023-07-03T09:10:58.824Z,51.35
2023-07-03T09:11:58.875Z,51.32
2023-07-03T09:12:59.936Z,51.28
2023-07-03T09:14:00.010Z,51.20
2023-07-03T09:14:59.052Z,51.20
2023-07-03T09:16:00.399Z,51.14
2023-07-03T09:17:00.424Z,51.15
2023-07-03T09:18:00.312Z,51.03
2023-07-03T09:18:59.339Z,51.16
2023-07-03T09:20:00.401Z,51.16
2023-07-03T09:20:59.456Z,51.07
2023-07-03T09:22:00.536Z,51.01
2023-07-03T09:23:00.676Z,50.98
2023-07-03T09:24:00.649Z,50.95
2023-07-03T09:25:00.701Z,50.98
2023-07-03T09:26:04.588Z,50.97
2023-07-03T09:27:01.318Z,50.97
2023-07-03T09:28:00.967Z,50.97
2023-07-03T09:28:59.994Z,50.89
2023-07-03T09:30:00.080Z,50.88
2023-07-03T09:31:01.841Z,51.00
2023-07-03T09:32:00.366Z,50.93
2023-07-03T09:33:00.448Z,50.83
2023-07-03T09:34:00.436Z,50.82
2023-07-03T09:35:01.470Z,50.82
2023-07-03T09:36:02.460Z,50.85
2023-07-03T09:37:01.588Z,50.86
2023-07-03T09:38:00.674Z,50.79
2023-07-03T09:39:01.871Z,50.77
2023-07-03T09:40:01.868Z,50.76
2023-07-03T09:41:02.016Z,50.77
2023-07-03T09:42:00.875Z,50.76
2023-07-03T09:43:01.969Z,50.65
2023-07-03T09:44:01.360Z,50.69
2023-07-03T09:45:01.042Z,50.63
2023-07-03T09:46:01.122Z,50.56
2023-07-03T09:47:01.156Z,50.58
2023-07-03T09:48:02.472Z,50.54
2023-07-03T09:49:02.263Z,50.51
2023-07-03T09:50:02.305Z,50.51
2023-07-03T09:51:07.915Z,50.50
2023-07-03T09:52:02.345Z,50.54
2023-07-03T09:53:09.119Z,50.48
2023-07-03T09:54:02.326Z,50.47
2023-07-03T09:55:02.455Z,50.48
2023-07-03T09:56:02.307Z,50.40
2023-07-03T09:57:02.317Z,50.36
2023-07-03T09:58:02.320Z,50.41
2023-07-03T09:59:02.308Z,50.33
2023-07-03T10:00:02.304Z,50.31
2023-07-03T10:01:02.454Z,50.35
2023-07-03T10:04:01.404Z,50.32
2023-07-03T10:07:01.755Z,50.25
2023-07-03T10:08:01.466Z,50.26
2023-07-03T10:12:01.297Z,50.13
2023-07-03T10:13:01.307Z,50.15
2023-07-03T10:14:02.208Z,50.04
2023-07-03T10:15:02.213Z,50.05
2023-07-03T10:16:01.189Z,50.06
2023-07-03T10:17:01.214Z,50.02
2023-07-03T10:18:01.381Z,50.03
2023-07-03T10:19:02.151Z,49.99
2023-07-03T10:20:02.374Z,49.97
2023-07-03T10:21:02.181Z,49.98
2023-07-03T10:22:02.169Z,49.90
2023-07-03T10:23:02.171Z,49.87
2023-07-03T10:24:01.153Z,49.91
2023-07-03T10:25:01.101Z,49.84
2023-07-03T10:26:01.095Z,49.87
2023-07-03T10:27:01.203Z,49.77
2023-07-03T10:28:02.180Z,49.77
2023-07-03T10:29:02.227Z,49.75
2023-07-03T10:30:02.108Z,49.73
2023-07-03T10:31:02.157Z,49.71
2023-07-03T10:32:01.397Z,49.72
2023-07-03T10:33:02.166Z,49.68
2023-07-03T10:34:01.043Z,49.68
2023-07-03T10:35:01.050Z,49.71
2023-07-03T10:36:01.812Z,49.64
2023-07-03T10:37:01.048Z,49.60
2023-07-03T10:38:01.037Z,49.63
2023-07-03T10:39:01.040Z,49.62
2023-07-03T10:40:02.024Z,49.57
2023-07-03T10:41:02.035Z,49.59
2023-07-03T10:42:02.069Z,49.53
2023-07-03T10:43:02.297Z,49.54
2023-07-03T10:44:02.222Z,49.47
2023-07-03T10:45:01.223Z,49.48
2023-07-03T10:46:01.316Z,49.47
2023-07-03T10:47:02.279Z,49.49
2023-07-03T10:48:02.436Z,49.46
2023-07-03T10:49:01.361Z,49.44
2023-07-03T10:50:01.444Z,49.41
2023-07-03T10:51:02.506Z,49.38
2023-07-03T10:52:01.489Z,49.36
2023-07-03T10:53:02.538Z,49.36
2023-07-03T10:54:01.583Z,49.35
2023-07-03T10:55:02.629Z,49.29
2023-07-03T10:56:02.644Z,49.30
2023-07-03T10:57:01.709Z,49.29
2023-07-03T10:58:01.707Z,49.24
2023-07-03T10:59:02.859Z,49.23
2023-07-03T11:00:01.772Z,49.25
2023-07-03T11:01:01.850Z,49.15
2023-07-03T11:02:02.900Z,49.19
2023-07-03T11:03:02.997Z,49.14
2023-07-03T11:04:22.289Z,49.09
2023-07-03T11:05:02.917Z,49.12
2023-07-03T11:06:02.898Z,49.11
2023-07-03T11:07:02.910Z,49.08
2023-07-03T11:08:01.887Z,49.08
2023-07-03T11:09:02.920Z,49.09
2023-07-03T11:10:02.887Z,49.07
2023-07-03T11:11:01.906Z,49.09
2023-07-03T11:12:01.902Z,49.09
2023-07-03T11:13:01.854Z,49.06
2023-07-03T11:14:01.929Z,49.07
2023-07-03T11:15:01.970Z,49.01
2023-07-03T11:16:03.009Z,49.04
2023-07-03T11:17:02.881Z,49.02
2023-07-03T11:20:01.858Z,48.94
2023-07-03T11:23:01.835Z,48.94
2023-07-03T11:24:02.808Z,48.99
2023-07-03T11:25:02.787Z,49.00
2023-07-03T11:28:01.783Z,48.94
2023-07-03T11:29:02.757Z,48.92
2023-07-03T11:30:02.747Z,48.91
2023-07-03T11:31:02.894Z,48.90
2023-07-03T11:32:01.741Z,48.89
2023-07-03T11:33:01.745Z,48.91
2023-07-03T11:36:01.693Z,48.87
2023-07-03T11:37:04.376Z,48.89
2023-07-03T11:40:01.708Z,48.87
2023-07-03T11:41:01.863Z,48.84
2023-07-03T11:44:01.645Z,48.81
2023-07-03T11:45:01.721Z,48.82
2023-07-03T11:46:01.643Z,48.82
2023-07-03T11:47:01.752Z,48.82
2023-07-03T11:48:02.750Z,48.82
2023-07-03T11:49:02.609Z,48.79
2023-07-03T11:50:01.679Z,48.78
2023-07-03T11:51:02.598Z,48.80
2023-07-03T11:52:02.600Z,48.78
2023-07-03T11:53:02.605Z,48.75
2023-07-03T11:54:01.583Z,48.76
2023-07-03T11:55:02.583Z,48.75
2023-07-03T11:56:01.602Z,48.74
2023-07-03T11:57:01.569Z,48.72
2023-07-03T11:58:15.060Z,48.71
2023-07-03T11:59:02.549Z,48.69
2023-07-03T12:00:01.559Z,48.67
2023-07-03T12:01:02.564Z,48.64
2023-07-03T12:02:02.564Z,48.68
2023-07-03T12:03:02.671Z,48.66
2023-07-03T12:04:01.592Z,48.64
2023-07-03T12:05:02.514Z,48.60
2023-07-03T12:06:02.520Z,48.62
2023-07-03T12:07:02.522Z,48.58
2023-07-03T12:08:02.497Z,48.61
2023-07-03T12:09:01.479Z,48.65
2023-07-03T12:10:01.483Z,48.65
2023-07-03T12:11:01.468Z,48.63
2023-07-03T12:12:01.497Z,48.64
2023-07-03T12:13:01.454Z,48.61
2023-07-03T12:14:02.463Z,48.59
2023-07-03T12:15:01.441Z,48.59
2023-07-03T12:16:02.462Z,48.56
2023-07-03T12:17:01.504Z,48.52
2023-07-03T12:18:01.463Z,48.50
2023-07-03T12:19:01.476Z,48.57
2023-07-03T12:20:01.465Z,48.50
2023-07-03T12:21:01.472Z,48.51
2023-07-03T12:22:02.402Z,48.51
2023-07-03T12:23:02.385Z,48.49
2023-07-03T12:24:01.409Z,48.53
2023-07-03T12:25:01.420Z,48.53
2023-07-03T12:26:02.404Z,48.55
2023-07-03T12:27:02.483Z,48.58
2023-07-03T12:28:01.392Z,48.58
2023-07-03T12:29:02.339Z,48.57
2023-07-03T12:30:02.354Z,48.55
2023-07-03T12:31:01.364Z,48.59
2023-07-03T12:32:01.330Z,48.56
2023-07-03T12:33:02.387Z,48.57
2023-07-03T12:34:01.353Z,48.58
2023-07-03T12:35:02.352Z,48.55
2023-07-03T12:36:02.308Z,48.56
2023-07-03T12:37:02.585Z,48.54
2023-07-03T12:38:01.285Z,48.55
2023-07-03T12:39:02.265Z,48.54
2023-07-03T12:40:02.277Z,48.53
2023-07-03T12:41:01.267Z,48.50
2023-07-03T12:42:02.276Z,48.47
2023-07-03T12:43:01.275Z,48.45
2023-07-03T12:45:01.294Z,48.44
2023-07-03T12:46:02.256Z,48.43
2023-07-03T12:47:01.366Z,48.45
2023-07-03T12:48:01.271Z,48.45
2023-07-03T12:49:01.237Z,48.47
2023-07-03T12:50:01.322Z,48.47
2023-07-03T12:51:01.314Z,48.44
2023-07-03T12:52:02.246Z,48.46
2023-07-03T12:53:02.232Z,48.46
2023-07-03T12:54:01.230Z,48.48
2023-07-03T12:55:13.194Z,48.47
2023-07-03T12:56:02.209Z,48.48
2023-07-03T12:57:02.276Z,48.47
2023-07-03T12:58:01.181Z,48.49
2023-07-03T12:59:02.187Z,48.47
2023-07-03T13:00:01.186Z,48.47
2023-07-03T13:01:02.229Z,48.43
2023-07-03T13:02:02.158Z,48.39
2023-07-03T13:03:02.207Z,48.44
2023-07-03T13:04:01.135Z,48.44
2023-07-03T13:05:02.299Z,48.38
2023-07-03T13:06:02.213Z,48.40
2023-07-03T13:07:02.183Z,48.40
2023-07-03T13:08:01.117Z,48.40
2023-07-03T13:09:01.137Z,48.36
2023-07-03T13:10:01.127Z,48.40
2023-07-03T13:11:02.119Z,48.39
2023-07-03T13:12:01.081Z,48.36
2023-07-03T13:13:01.146Z,48.40
2023-07-03T13:14:02.075Z,48.37
2023-07-03T13:15:01.075Z,48.38
2023-07-03T13:16:02.055Z,48.38